sensor_id;sensor_type;location;lat;lon;timestamp;P1;durP1;ratioP1;P2;durP2;ratioP2
49029;SDS011;43337;52.070;4.508;2023-08-08T00:01:32;12.35;;;2.35;;
49029;SDS011;43337;52.070;4.508;2023-08-08T00:03:59;6.47;;;2.00;;
49029;SDS011;43337;52.070;4.508;2023-08-08T00:06:24;6.55;;;2.10;;
49029;SDS011;43337;52.070;4.508;2023-08-08T00:08:50;8.15;;;1.92;;
49029;SDS011;43337;52.070;4.508;2023-08-08T00:11:15;8.45;;;1.80;;
49029;SDS011;43337;52.070;4.508;2023-08-08T00:13:40;9.20;;;1.83;;
49029;SDS011;43337;52.070;4.508;2023-08-08T00:16:06;8.93;;;1.92;;
49029;SDS011;43337;52.070;4.508;2023-08-08T00:18:32;6.07;;;1.95;;
49029;SDS011;43337;52.070;4.508;2023-08-08T00:20:57;7.45;;;1.65;;
49029;SDS011;43337;52.070;4.508;2023-08-08T00:23:22;8.80;;;2.30;;
49029;SDS011;43337;52.070;4.508;2023-08-08T00:25:48;7.15;;;2.28;;
49029;SDS011;43337;52.070;4.508;2023-08-08T00:28:15;3.72;;;1.60;;
49029;SDS011;43337;52.070;4.508;2023-08-08T00:30:41;6.32;;;2.88;;
49029;SDS011;43337;52.070;4.508;2023-08-08T00:33:06;6.30;;;2.30;;
49029;SDS011;43337;52.070;4.508;2023-08-08T00:35:33;7.32;;;1.90;;
49029;SDS011;43337;52.070;4.508;2023-08-08T00:37:58;5.00;;;1.58;;
49029;SDS011;43337;52.070;4.508;2023-08-08T00:40:24;3.33;;;1.50;;
49029;SDS011;43337;52.070;4.508;2023-08-08T00:42:49;3.45;;;1.70;;
49029;SDS011;43337;52.070;4.508;2023-08-08T00:45:14;4.15;;;1.95;;
49029;SDS011;43337;52.070;4.508;2023-08-08T00:47:40;3.97;;;1.60;;
49029;SDS011;43337;52.070;4.508;2023-08-08T00:50:06;6.10;;;1.60;;
49029;SDS011;43337;52.070;4.508;2023-08-08T00:52:31;3.70;;;1.40;;
49029;SDS011;43337;52.070;4.508;2023-08-08T00:54:57;3.90;;;1.80;;
49029;SDS011;43337;52.070;4.508;2023-08-08T00:57:24;5.03;;;1.95;;
49029;SDS011;43337;52.070;4.508;2023-08-08T00:59:49;5.60;;;1.48;;
49029;SDS011;43337;52.070;4.508;2023-08-08T01:02:14;4.82;;;1.83;;
49029;SDS011;43337;52.070;4.508;2023-08-08T01:04:40;5.18;;;1.60;;
49029;SDS011;43337;52.070;4.508;2023-08-08T01:07:15;5.18;;;1.58;;
49029;SDS011;43337;52.070;4.508;2023-08-08T01:09:54;3.28;;;1.50;;
49029;SDS011;43337;52.070;4.508;2023-08-08T01:12:23;3.75;;;1.35;;
49029;SDS011;43337;52.070;4.508;2023-08-08T01:14:50;5.78;;;1.73;;
49029;SDS011;43337;52.070;4.508;2023-08-08T01:17:17;4.72;;;1.50;;
49029;SDS011;43337;52.070;4.508;2023-08-08T01:19:43;6.65;;;1.85;;
49029;SDS011;43337;52.070;4.508;2023-08-08T01:22:11;4.07;;;1.17;;
49029;SDS011;43337;52.070;4.508;2023-08-08T01:24:45;7.22;;;1.70;;
49029;SDS011;43337;52.070;4.508;2023-08-08T01:27:11;5.50;;;1.30;;
49029;SDS011;43337;52.070;4.508;2023-08-08T01:29:36;3.85;;;1.33;;
49029;SDS011;43337;52.070;4.508;2023-08-08T01:32:02;4.50;;;1.35;;
49029;SDS011;43337;52.070;4.508;2023-08-08T01:34:28;6.25;;;1.35;;
49029;SDS011;43337;52.070;4.508;2023-08-08T01:37:12;4.38;;;1.33;;
49029;SDS011;43337;52.070;4.508;2023-08-08T01:39:42;6.32;;;2.25;;
49029;SDS011;43337;52.070;4.508;2023-08-08T01:42:12;6.93;;;1.40;;
49029;SDS011;43337;52.070;4.508;2023-08-08T01:44:40;3.78;;;1.33;;
49029;SDS011;43337;52.070;4.508;2023-08-08T01:47:07;3.58;;;1.20;;
49029;SDS011;43337;52.070;4.508;2023-08-08T01:49:34;4.45;;;1.30;;
49029;SDS011;43337;52.070;4.508;2023-08-08T01:51:59;5.78;;;1.40;;
49029;SDS011;43337;52.070;4.508;2023-08-08T01:54:25;3.70;;;1.35;;
49029;SDS011;43337;52.070;4.508;2023-08-08T01:56:50;4.18;;;1.30;;
49029;SDS011;43337;52.070;4.508;2023-08-08T01:59:16;4.93;;;1.30;;
49029;SDS011;43337;52.070;4.508;2023-08-08T02:01:41;6.63;;;1.50;;
49029;SDS011;43337;52.070;4.508;2023-08-08T02:04:06;12.57;;;2.10;;
49029;SDS011;43337;52.070;4.508;2023-08-08T02:06:32;7.90;;;1.30;;
49029;SDS011;43337;52.070;4.508;2023-08-08T02:08:57;5.57;;;1.10;;
49029;SDS011;43337;52.070;4.508;2023-08-08T02:11:23;6.70;;;1.75;;
49029;SDS011;43337;52.070;4.508;2023-08-08T02:13:48;8.00;;;1.30;;
49029;SDS011;43337;52.070;4.508;2023-08-08T02:16:14;5.47;;;1.33;;
49029;SDS011;43337;52.070;4.508;2023-08-08T02:18:39;5.45;;;1.42;;
49029;SDS011;43337;52.070;4.508;2023-08-08T02:21:06;4.55;;;1.45;;
49029;SDS011;43337;52.070;4.508;2023-08-08T02:23:32;6.75;;;1.13;;
49029;SDS011;43337;52.070;4.508;2023-08-08T02:25:58;4.65;;;1.20;;
49029;SDS011;43337;52.070;4.508;2023-08-08T02:28:23;9.18;;;1.45;;
49029;SDS011;43337;52.070;4.508;2023-08-08T02:30:49;4.32;;;1.00;;
49029;SDS011;43337;52.070;4.508;2023-08-08T02:33:14;7.22;;;1.90;;
49029;SDS011;43337;52.070;4.508;2023-08-08T02:35:39;7.95;;;1.60;;
49029;SDS011;43337;52.070;4.508;2023-08-08T02:38:05;4.35;;;1.20;;
49029;SDS011;43337;52.070;4.508;2023-08-08T02:40:30;5.68;;;1.08;;
49029;SDS011;43337;52.070;4.508;2023-08-08T02:42:55;4.72;;;1.10;;
49029;SDS011;43337;52.070;4.508;2023-08-08T02:45:21;5.47;;;1.33;;
49029;SDS011;43337;52.070;4.508;2023-08-08T02:47:46;7.97;;;1.02;;
49029;SDS011;43337;52.070;4.508;2023-08-08T02:50:13;4.97;;;1.27;;
49029;SDS011;43337;52.070;4.508;2023-08-08T02:52:38;4.07;;;1.10;;
49029;SDS011;43337;52.070;4.508;2023-08-08T02:55:04;4.53;;;1.35;;
49029;SDS011;43337;52.070;4.508;2023-08-08T02:57:30;3.25;;;0.82;;
49029;SDS011;43337;52.070;4.508;2023-08-08T02:59:55;5.78;;;0.93;;
49029;SDS011;43337;52.070;4.508;2023-08-08T03:02:20;5.18;;;1.27;;
49029;SDS011;43337;52.070;4.508;2023-08-08T03:04:46;5.35;;;1.13;;
49029;SDS011;43337;52.070;4.508;2023-08-08T03:07:11;4.78;;;1.40;;
49029;SDS011;43337;52.070;4.508;2023-08-08T03:09:37;4.68;;;1.00;;
49029;SDS011;43337;52.070;4.508;2023-08-08T03:12:05;3.95;;;1.00;;
49029;SDS011;43337;52.070;4.508;2023-08-08T03:14:31;7.65;;;1.00;;
49029;SDS011;43337;52.070;4.508;2023-08-08T03:16:56;11.57;;;1.50;;
49029;SDS011;43337;52.070;4.508;2023-08-08T03:19:21;3.67;;;0.70;;
49029;SDS011;43337;52.070;4.508;2023-08-08T03:21:48;5.30;;;1.00;;
49029;SDS011;43337;52.070;4.508;2023-08-08T03:24:13;6.13;;;1.10;;
49029;SDS011;43337;52.070;4.508;2023-08-08T03:26:39;4.90;;;1.55;;
49029;SDS011;43337;52.070;4.508;2023-08-08T03:29:04;4.40;;;1.45;;
49029;SDS011;43337;52.070;4.508;2023-08-08T03:31:29;5.43;;;1.77;;
49029;SDS011;43337;52.070;4.508;2023-08-08T03:33:55;3.20;;;0.93;;
49029;SDS011;43337;52.070;4.508;2023-08-08T03:36:20;3.00;;;1.02;;
49029;SDS011;43337;52.070;4.508;2023-08-08T03:38:46;6.60;;;1.17;;
49029;SDS011;43337;52.070;4.508;2023-08-08T03:41:11;8.68;;;1.23;;
49029;SDS011;43337;52.070;4.508;2023-08-08T03:43:38;5.35;;;1.05;;
49029;SDS011;43337;52.070;4.508;2023-08-08T03:46:04;5.32;;;1.05;;
49029;SDS011;43337;52.070;4.508;2023-08-08T03:48:30;6.55;;;0.85;;
49029;SDS011;43337;52.070;4.508;2023-08-08T03:50:55;4.03;;;1.15;;
49029;SDS011;43337;52.070;4.508;2023-08-08T03:53:22;5.13;;;0.85;;
49029;SDS011;43337;52.070;4.508;2023-08-08T03:55:47;3.03;;;0.90;;
49029;SDS011;43337;52.070;4.508;2023-08-08T03:58:12;4.75;;;1.15;;
49029;SDS011;43337;52.070;4.508;2023-08-08T04:00:38;2.55;;;0.70;;
49029;SDS011;43337;52.070;4.508;2023-08-08T04:03:10;3.95;;;0.90;;
49029;SDS011;43337;52.070;4.508;2023-08-08T04:05:36;2.97;;;0.70;;
49029;SDS011;43337;52.070;4.508;2023-08-08T04:08:02;4.28;;;1.30;;
49029;SDS011;43337;52.070;4.508;2023-08-08T04:10:27;2.72;;;0.60;;
49029;SDS011;43337;52.070;4.508;2023-08-08T04:12:53;4.85;;;0.90;;
49029;SDS011;43337;52.070;4.508;2023-08-08T04:15:18;3.15;;;0.68;;
49029;SDS011;43337;52.070;4.508;2023-08-08T04:17:44;4.07;;;1.05;;
49029;SDS011;43337;52.070;4.508;2023-08-08T04:20:09;3.78;;;1.00;;
49029;SDS011;43337;52.070;4.508;2023-08-08T04:22:35;3.65;;;0.70;;
49029;SDS011;43337;52.070;4.508;2023-08-08T04:25:00;6.45;;;1.13;;
49029;SDS011;43337;52.070;4.508;2023-08-08T04:27:26;6.10;;;2.08;;
49029;SDS011;43337;52.070;4.508;2023-08-08T04:29:51;2.33;;;0.80;;
49029;SDS011;43337;52.070;4.508;2023-08-08T04:32:16;3.65;;;0.80;;
49029;SDS011;43337;52.070;4.508;2023-08-08T04:34:42;4.00;;;0.77;;
49029;SDS011;43337;52.070;4.508;2023-08-08T04:37:07;4.65;;;0.80;;
49029;SDS011;43337;52.070;4.508;2023-08-08T04:39:32;3.15;;;0.80;;
49029;SDS011;43337;52.070;4.508;2023-08-08T04:41:58;4.95;;;0.90;;
49029;SDS011;43337;52.070;4.508;2023-08-08T04:44:23;2.65;;;0.80;;
49029;SDS011;43337;52.070;4.508;2023-08-08T04:46:48;6.78;;;1.83;;
49029;SDS011;43337;52.070;4.508;2023-08-08T04:49:14;3.90;;;0.90;;
49029;SDS011;43337;52.070;4.508;2023-08-08T04:51:39;4.35;;;1.00;;
49029;SDS011;43337;52.070;4.508;2023-08-08T04:54:04;4.97;;;1.27;;
49029;SDS011;43337;52.070;4.508;2023-08-08T04:56:30;4.97;;;0.93;;
49029;SDS011;43337;52.070;4.508;2023-08-08T04:58:55;4.65;;;1.00;;
49029;SDS011;43337;52.070;4.508;2023-08-08T05:01:20;4.93;;;1.35;;
49029;SDS011;43337;52.070;4.508;2023-08-08T05:03:47;3.03;;;1.05;;
49029;SDS011;43337;52.070;4.508;2023-08-08T05:06:13;5.45;;;1.45;;
49029;SDS011;43337;52.070;4.508;2023-08-08T05:08:38;3.40;;;0.90;;
49029;SDS011;43337;52.070;4.508;2023-08-08T05:11:04;4.82;;;1.40;;
49029;SDS011;43337;52.070;4.508;2023-08-08T05:13:29;3.85;;;0.90;;
49029;SDS011;43337;52.070;4.508;2023-08-08T05:15:54;5.35;;;1.30;;
49029;SDS011;43337;52.070;4.508;2023-08-08T05:18:20;4.15;;;0.80;;
49029;SDS011;43337;52.070;4.508;2023-08-08T05:20:45;3.70;;;0.73;;
49029;SDS011;43337;52.070;4.508;2023-08-08T05:23:10;4.50;;;0.70;;
49029;SDS011;43337;52.070;4.508;2023-08-08T05:25:35;3.65;;;1.20;;
49029;SDS011;43337;52.070;4.508;2023-08-08T05:28:01;8.10;;;0.80;;
49029;SDS011;43337;52.070;4.508;2023-08-08T05:30:26;3.55;;;0.90;;
49029;SDS011;43337;52.070;4.508;2023-08-08T05:32:52;3.78;;;0.82;;
49029;SDS011;43337;52.070;4.508;2023-08-08T05:35:17;6.55;;;1.20;;
49029;SDS011;43337;52.070;4.508;2023-08-08T05:37:43;3.50;;;1.23;;
49029;SDS011;43337;52.070;4.508;2023-08-08T05:40:08;1.88;;;0.60;;
49029;SDS011;43337;52.070;4.508;2023-08-08T05:42:35;2.25;;;0.50;;
49029;SDS011;43337;52.070;4.508;2023-08-08T05:45:00;3.83;;;0.70;;
49029;SDS011;43337;52.070;4.508;2023-08-08T05:47:26;4.43;;;0.80;;
49029;SDS011;43337;52.070;4.508;2023-08-08T05:49:52;3.25;;;0.70;;
49029;SDS011;43337;52.070;4.508;2023-08-08T05:52:18;3.72;;;0.60;;
49029;SDS011;43337;52.070;4.508;2023-08-08T05:54:43;2.72;;;0.70;;
49029;SDS011;43337;52.070;4.508;2023-08-08T05:57:08;3.72;;;0.70;;
49029;SDS011;43337;52.070;4.508;2023-08-08T05:59:34;3.45;;;0.52;;
49029;SDS011;43337;52.070;4.508;2023-08-08T06:01:59;2.42;;;0.60;;
49029;SDS011;43337;52.070;4.508;2023-08-08T06:04:25;2.53;;;0.50;;
49029;SDS011;43337;52.070;4.508;2023-08-08T06:06:50;5.72;;;0.90;;
49029;SDS011;43337;52.070;4.508;2023-08-08T06:09:16;3.17;;;0.50;;
49029;SDS011;43337;52.070;4.508;2023-08-08T06:11:42;2.00;;;0.50;;
49029;SDS011;43337;52.070;4.508;2023-08-08T06:14:07;6.65;;;0.88;;
49029;SDS011;43337;52.070;4.508;2023-08-08T06:16:33;1.73;;;0.50;;
49029;SDS011;43337;52.070;4.508;2023-08-08T06:18:58;4.22;;;0.60;;
49029;SDS011;43337;52.070;4.508;2023-08-08T06:21:23;2.92;;;0.73;;
49029;SDS011;43337;52.070;4.508;2023-08-08T06:23:49;3.72;;;0.50;;
49029;SDS011;43337;52.070;4.508;2023-08-08T06:26:15;2.70;;;0.73;;
49029;SDS011;43337;52.070;4.508;2023-08-08T06:28:40;5.43;;;1.20;;
49029;SDS011;43337;52.070;4.508;2023-08-08T06:31:05;5.53;;;0.60;;
49029;SDS011;43337;52.070;4.508;2023-08-08T06:33:31;1.30;;;0.32;;
49029;SDS011;43337;52.070;4.508;2023-08-08T06:35:56;2.55;;;0.60;;
49029;SDS011;43337;52.070;4.508;2023-08-08T06:38:21;5.28;;;0.60;;
49029;SDS011;43337;52.070;4.508;2023-08-08T06:40:47;7.82;;;0.88;;
49029;SDS011;43337;52.070;4.508;2023-08-08T06:43:13;3.95;;;0.50;;
49029;SDS011;43337;52.070;4.508;2023-08-08T06:45:38;4.93;;;0.73;;
49029;SDS011;43337;52.070;4.508;2023-08-08T06:48:04;2.67;;;1.00;;
49029;SDS011;43337;52.070;4.508;2023-08-08T06:50:30;2.72;;;0.40;;
49029;SDS011;43337;52.070;4.508;2023-08-08T06:52:55;1.55;;;0.55;;
49029;SDS011;43337;52.070;4.508;2023-08-08T06:55:20;2.40;;;0.60;;
49029;SDS011;43337;52.070;4.508;2023-08-08T06:57:46;2.13;;;0.57;;
49029;SDS011;43337;52.070;4.508;2023-08-08T07:00:11;2.00;;;0.50;;
49029;SDS011;43337;52.070;4.508;2023-08-08T07:02:38;3.38;;;0.55;;
49029;SDS011;43337;52.070;4.508;2023-08-08T07:05:04;3.92;;;0.70;;
49029;SDS011;43337;52.070;4.508;2023-08-08T07:07:30;3.38;;;0.60;;
49029;SDS011;43337;52.070;4.508;2023-08-08T07:09:57;1.70;;;0.50;;
49029;SDS011;43337;52.070;4.508;2023-08-08T07:12:23;5.05;;;0.45;;
49029;SDS011;43337;52.070;4.508;2023-08-08T07:14:48;4.18;;;1.25;;
49029;SDS011;43337;52.070;4.508;2023-08-08T07:17:13;2.40;;;0.50;;
49029;SDS011;43337;52.070;4.508;2023-08-08T07:19:39;2.03;;;0.60;;
49029;SDS011;43337;52.070;4.508;2023-08-08T07:22:06;3.85;;;0.60;;
49029;SDS011;43337;52.070;4.508;2023-08-08T07:24:32;2.33;;;1.05;;
49029;SDS011;43337;52.070;4.508;2023-08-08T07:26:58;2.22;;;0.50;;
49029;SDS011;43337;52.070;4.508;2023-08-08T07:29:24;1.02;;;0.40;;
49029;SDS011;43337;52.070;4.508;2023-08-08T07:31:51;2.00;;;0.45;;
49029;SDS011;43337;52.070;4.508;2023-08-08T07:34:18;1.45;;;0.35;;
49029;SDS011;43337;52.070;4.508;2023-08-08T07:36:43;2.60;;;0.70;;
49029;SDS011;43337;52.070;4.508;2023-08-08T07:39:10;4.15;;;0.50;;
49029;SDS011;43337;52.070;4.508;2023-08-08T07:41:35;1.67;;;0.50;;
49029;SDS011;43337;52.070;4.508;2023-08-08T07:44:01;3.83;;;0.60;;
49029;SDS011;43337;52.070;4.508;2023-08-08T07:46:27;2.00;;;1.13;;
49029;SDS011;43337;52.070;4.508;2023-08-08T07:48:53;2.67;;;0.60;;
49029;SDS011;43337;52.070;4.508;2023-08-08T07:51:18;4.53;;;0.70;;
49029;SDS011;43337;52.070;4.508;2023-08-08T07:53:44;2.42;;;0.50;;
49029;SDS011;43337;52.070;4.508;2023-08-08T07:56:09;1.73;;;0.50;;
49029;SDS011;43337;52.070;4.508;2023-08-08T07:58:34;2.40;;;0.60;;
49029;SDS011;43337;52.070;4.508;2023-08-08T08:00:59;3.40;;;0.60;;
49029;SDS011;43337;52.070;4.508;2023-08-08T08:03:26;4.10;;;0.75;;
49029;SDS011;43337;52.070;4.508;2023-08-08T08:05:52;4.45;;;0.60;;
49029;SDS011;43337;52.070;4.508;2023-08-08T08:08:18;1.75;;;0.65;;
49029;SDS011;43337;52.070;4.508;2023-08-08T08:10:43;2.58;;;0.60;;
49029;SDS011;43337;52.070;4.508;2023-08-08T08:13:08;1.85;;;0.50;;
49029;SDS011;43337;52.070;4.508;2023-08-08T08:15:35;2.85;;;0.60;;
49029;SDS011;43337;52.070;4.508;2023-08-08T08:18:01;3.70;;;0.57;;
49029;SDS011;43337;52.070;4.508;2023-08-08T08:20:26;2.72;;;0.70;;
49029;SDS011;43337;52.070;4.508;2023-08-08T08:22:51;5.10;;;1.27;;
49029;SDS011;43337;52.070;4.508;2023-08-08T08:25:17;2.97;;;0.52;;
49029;SDS011;43337;52.070;4.508;2023-08-08T08:27:42;3.35;;;1.05;;
49029;SDS011;43337;52.070;4.508;2023-08-08T08:30:08;3.30;;;0.80;;
49029;SDS011;43337;52.070;4.508;2023-08-08T08:32:36;4.10;;;0.90;;
49029;SDS011;43337;52.070;4.508;2023-08-08T08:35:04;2.58;;;0.65;;
49029;SDS011;43337;52.070;4.508;2023-08-08T08:37:31;1.83;;;0.60;;
49029;SDS011;43337;52.070;4.508;2023-08-08T08:39:56;1.60;;;0.50;;
49029;SDS011;43337;52.070;4.508;2023-08-08T08:42:22;2.72;;;0.85;;
49029;SDS011;43337;52.070;4.508;2023-08-08T08:44:49;4.93;;;1.00;;
49029;SDS011;43337;52.070;4.508;2023-08-08T08:47:14;2.60;;;0.50;;
49029;SDS011;43337;52.070;4.508;2023-08-08T08:49:44;4.15;;;0.77;;
49029;SDS011;43337;52.070;4.508;2023-08-08T08:52:10;2.40;;;0.73;;
49029;SDS011;43337;52.070;4.508;2023-08-08T08:54:36;4.20;;;0.75;;
49029;SDS011;43337;52.070;4.508;2023-08-08T08:57:02;3.15;;;0.57;;
49029;SDS011;43337;52.070;4.508;2023-08-08T08:59:28;4.00;;;0.70;;
49029;SDS011;43337;52.070;4.508;2023-08-08T09:01:54;3.13;;;0.60;;
49029;SDS011;43337;52.070;4.508;2023-08-08T09:04:21;2.88;;;0.60;;
49029;SDS011;43337;52.070;4.508;2023-08-08T09:06:48;2.72;;;0.90;;
49029;SDS011;43337;52.070;4.508;2023-08-08T09:09:15;4.15;;;0.63;;
49029;SDS011;43337;52.070;4.508;2023-08-08T09:11:50;3.63;;;0.75;;
49029;SDS011;43337;52.070;4.508;2023-08-08T09:14:19;2.35;;;0.52;;
49029;SDS011;43337;52.070;4.508;2023-08-08T09:16:46;1.95;;;0.60;;
49029;SDS011;43337;52.070;4.508;2023-08-08T09:19:16;2.80;;;0.57;;
49029;SDS011;43337;52.070;4.508;2023-08-08T09:21:45;1.75;;;0.70;;
49029;SDS011;43337;52.070;4.508;2023-08-08T09:24:11;3.15;;;0.57;;
49029;SDS011;43337;52.070;4.508;2023-08-08T09:26:37;2.38;;;0.60;;
49029;SDS011;43337;52.070;4.508;2023-08-08T09:29:03;2.53;;;0.50;;
49029;SDS011;43337;52.070;4.508;2023-08-08T09:31:29;2.22;;;0.65;;
49029;SDS011;43337;52.070;4.508;2023-08-08T09:33:59;4.30;;;0.98;;
49029;SDS011;43337;52.070;4.508;2023-08-08T09:36:25;3.97;;;0.73;;
49029;SDS011;43337;52.070;4.508;2023-08-08T09:38:51;3.75;;;0.93;;
49029;SDS011;43337;52.070;4.508;2023-08-08T09:41:20;1.85;;;0.60;;
49029;SDS011;43337;52.070;4.508;2023-08-08T09:43:50;4.88;;;0.70;;
49029;SDS011;43337;52.070;4.508;2023-08-08T09:46:20;2.85;;;0.60;;
49029;SDS011;43337;52.070;4.508;2023-08-08T09:48:46;2.20;;;0.75;;
49029;SDS011;43337;52.070;4.508;2023-08-08T09:51:12;0.95;;;0.47;;
49029;SDS011;43337;52.070;4.508;2023-08-08T09:53:39;2.13;;;0.50;;
49029;SDS011;43337;52.070;4.508;2023-08-08T09:56:06;1.33;;;0.50;;
49029;SDS011;43337;52.070;4.508;2023-08-08T09:58:32;1.65;;;0.50;;
49029;SDS011;43337;52.070;4.508;2023-08-08T10:00:58;3.28;;;0.57;;
49029;SDS011;43337;52.070;4.508;2023-08-08T10:03:24;2.15;;;0.50;;
49029;SDS011;43337;52.070;4.508;2023-08-08T10:05:51;3.20;;;0.60;;
49029;SDS011;43337;52.070;4.508;2023-08-08T10:08:17;3.40;;;0.60;;
49029;SDS011;43337;52.070;4.508;2023-08-08T10:10:44;1.95;;;0.73;;
49029;SDS011;43337;52.070;4.508;2023-08-08T10:13:18;2.85;;;0.60;;
49029;SDS011;43337;52.070;4.508;2023-08-08T10:15:44;1.40;;;0.50;;
49029;SDS011;43337;52.070;4.508;2023-08-08T10:18:10;2.30;;;0.43;;
49029;SDS011;43337;52.070;4.508;2023-08-08T10:20:39;1.92;;;0.45;;
49029;SDS011;43337;52.070;4.508;2023-08-08T10:23:07;2.72;;;1.40;;
49029;SDS011;43337;52.070;4.508;2023-08-08T10:25:32;2.33;;;0.70;;
49029;SDS011;43337;52.070;4.508;2023-08-08T10:28:04;1.45;;;0.55;;
49029;SDS011;43337;52.070;4.508;2023-08-08T10:30:45;0.98;;;0.47;;
49029;SDS011;43337;52.070;4.508;2023-08-08T10:33:27;2.00;;;0.52;;
49029;SDS011;43337;52.070;4.508;2023-08-08T10:36:04;5.72;;;0.68;;
49029;SDS011;43337;52.070;4.508;2023-08-08T10:38:45;3.72;;;0.70;;
49029;SDS011;43337;52.070;4.508;2023-08-08T10:41:20;1.90;;;0.70;;
49029;SDS011;43337;52.070;4.508;2023-08-08T10:43:50;1.95;;;0.60;;
49029;SDS011;43337;52.070;4.508;2023-08-08T10:46:30;1.75;;;0.50;;
49029;SDS011;43337;52.070;4.508;2023-08-08T10:51:31;3.15;;;0.63;;
49029;SDS011;43337;52.070;4.508;2023-08-08T10:54:07;5.10;;;0.60;;
49029;SDS011;43337;52.070;4.508;2023-08-08T10:56:39;2.45;;;0.40;;
49029;SDS011;43337;52.070;4.508;2023-08-08T10:59:14;0.82;;;0.30;;
49029;SDS011;43337;52.070;4.508;2023-08-08T11:01:41;2.67;;;0.77;;
49029;SDS011;43337;52.070;4.508;2023-08-08T11:04:10;2.10;;;0.40;;
49029;SDS011;43337;52.070;4.508;2023-08-08T11:06:36;2.50;;;0.57;;
49029;SDS011;43337;52.070;4.508;2023-08-08T11:09:04;2.20;;;0.50;;
49029;SDS011;43337;52.070;4.508;2023-08-08T11:11:35;1.35;;;0.50;;
49029;SDS011;43337;52.070;4.508;2023-08-08T11:14:14;2.97;;;0.60;;
49029;SDS011;43337;52.070;4.508;2023-08-08T11:16:41;4.03;;;0.60;;
49029;SDS011;43337;52.070;4.508;2023-08-08T11:19:08;1.90;;;0.50;;
49029;SDS011;43337;52.070;4.508;2023-08-08T11:21:36;2.50;;;0.65;;
49029;SDS011;43337;52.070;4.508;2023-08-08T11:24:04;2.17;;;0.65;;
49029;SDS011;43337;52.070;4.508;2023-08-08T11:26:30;2.50;;;0.70;;
49029;SDS011;43337;52.070;4.508;2023-08-08T11:29:01;1.67;;;0.40;;
49029;SDS011;43337;52.070;4.508;2023-08-08T11:31:29;2.75;;;0.60;;
49029;SDS011;43337;52.070;4.508;2023-08-08T11:33:55;2.55;;;0.73;;
49029;SDS011;43337;52.070;4.508;2023-08-08T11:36:21;1.17;;;0.40;;
49029;SDS011;43337;52.070;4.508;2023-08-08T11:38:48;3.00;;;0.70;;
49029;SDS011;43337;52.070;4.508;2023-08-08T11:41:15;2.45;;;0.60;;
49029;SDS011;43337;52.070;4.508;2023-08-08T11:43:43;2.67;;;0.65;;
49029;SDS011;43337;52.070;4.508;2023-08-08T11:46:09;1.15;;;0.50;;
49029;SDS011;43337;52.070;4.508;2023-08-08T11:48:37;5.28;;;0.68;;
49029;SDS011;43337;52.070;4.508;2023-08-08T11:51:07;1.70;;;0.68;;
49029;SDS011;43337;52.070;4.508;2023-08-08T11:53:33;2.47;;;0.65;;
49029;SDS011;43337;52.070;4.508;2023-08-08T11:55:59;3.70;;;0.90;;
49029;SDS011;43337;52.070;4.508;2023-08-08T11:58:25;2.30;;;0.70;;
49029;SDS011;43337;52.070;4.508;2023-08-08T12:00:51;2.88;;;0.60;;
49029;SDS011;43337;52.070;4.508;2023-08-08T12:03:17;2.13;;;0.75;;
49029;SDS011;43337;52.070;4.508;2023-08-08T12:05:47;4.05;;;1.00;;
49029;SDS011;43337;52.070;4.508;2023-08-08T12:08:17;2.45;;;0.60;;
49029;SDS011;43337;52.070;4.508;2023-08-08T12:10:48;4.28;;;0.47;;
49029;SDS011;43337;52.070;4.508;2023-08-08T12:13:22;3.08;;;0.82;;
49029;SDS011;43337;52.070;4.508;2023-08-08T12:15:48;2.30;;;0.70;;
49029;SDS011;43337;52.070;4.508;2023-08-08T12:18:17;3.47;;;0.70;;
49029;SDS011;43337;52.070;4.508;2023-08-08T12:20:43;3.22;;;0.70;;
49029;SDS011;43337;52.070;4.508;2023-08-08T12:23:09;1.83;;;0.43;;
49029;SDS011;43337;52.070;4.508;2023-08-08T12:25:35;2.22;;;0.80;;
49029;SDS011;43337;52.070;4.508;2023-08-08T12:28:01;5.50;;;0.77;;
49029;SDS011;43337;52.070;4.508;2023-08-08T12:30:27;4.47;;;0.70;;
49029;SDS011;43337;52.070;4.508;2023-08-08T12:32:52;3.53;;;0.80;;
49029;SDS011;43337;52.070;4.508;2023-08-08T12:35:19;5.07;;;0.52;;
49029;SDS011;43337;52.070;4.508;2023-08-08T12:37:45;2.38;;;0.65;;
49029;SDS011;43337;52.070;4.508;2023-08-08T12:40:11;3.55;;;0.70;;
49029;SDS011;43337;52.070;4.508;2023-08-08T12:42:38;2.25;;;0.50;;
49029;SDS011;43337;52.070;4.508;2023-08-08T12:45:03;3.50;;;0.60;;
49029;SDS011;43337;52.070;4.508;2023-08-08T12:47:30;1.88;;;0.60;;
49029;SDS011;43337;52.070;4.508;2023-08-08T12:49:56;2.22;;;0.90;;
49029;SDS011;43337;52.070;4.508;2023-08-08T12:52:22;2.95;;;0.52;;
49029;SDS011;43337;52.070;4.508;2023-08-08T12:54:47;1.90;;;0.50;;
49029;SDS011;43337;52.070;4.508;2023-08-08T12:57:13;4.70;;;1.00;;
49029;SDS011;43337;52.070;4.508;2023-08-08T12:59:38;3.25;;;0.65;;
49029;SDS011;43337;52.070;4.508;2023-08-08T13:02:04;2.17;;;0.55;;
49029;SDS011;43337;52.070;4.508;2023-08-08T13:04:29;3.75;;;1.00;;
49029;SDS011;43337;52.070;4.508;2023-08-08T13:06:55;8.43;;;1.40;;
49029;SDS011;43337;52.070;4.508;2023-08-08T13:09:20;5.60;;;2.42;;
49029;SDS011;43337;52.070;4.508;2023-08-08T13:11:46;9.75;;;4.13;;
49029;SDS011;43337;52.070;4.508;2023-08-08T13:14:11;9.90;;;3.53;;
49029;SDS011;43337;52.070;4.508;2023-08-08T13:16:36;5.03;;;0.90;;
49029;SDS011;43337;52.070;4.508;2023-08-08T13:19:02;4.35;;;1.15;;
49029;SDS011;43337;52.070;4.508;2023-08-08T13:21:28;3.40;;;0.80;;
49029;SDS011;43337;52.070;4.508;2023-08-08T13:23:54;3.08;;;1.20;;
49029;SDS011;43337;52.070;4.508;2023-08-08T13:26:19;2.53;;;0.50;;
49029;SDS011;43337;52.070;4.508;2023-08-08T13:28:44;2.08;;;0.50;;
49029;SDS011;43337;52.070;4.508;2023-08-08T13:31:10;3.15;;;0.70;;
49029;SDS011;43337;52.070;4.508;2023-08-08T13:33:35;2.13;;;0.50;;
49029;SDS011;43337;52.070;4.508;2023-08-08T13:36:01;2.63;;;0.70;;
49029;SDS011;43337;52.070;4.508;2023-08-08T13:38:26;2.35;;;0.68;;
49029;SDS011;43337;52.070;4.508;2023-08-08T13:40:52;3.50;;;0.88;;
49029;SDS011;43337;52.070;4.508;2023-08-08T13:43:18;8.23;;;1.00;;
49029;SDS011;43337;52.070;4.508;2023-08-08T13:45:43;2.00;;;0.68;;
49029;SDS011;43337;52.070;4.508;2023-08-08T13:48:09;5.20;;;1.10;;
49029;SDS011;43337;52.070;4.508;2023-08-08T13:50:35;3.63;;;0.80;;
49029;SDS011;43337;52.070;4.508;2023-08-08T13:53:00;4.95;;;1.00;;
49029;SDS011;43337;52.070;4.508;2023-08-08T13:55:27;5.40;;;0.85;;
49029;SDS011;43337;52.070;4.508;2023-08-08T13:57:52;4.75;;;0.80;;
49029;SDS011;43337;52.070;4.508;2023-08-08T14:00:20;2.70;;;0.70;;
49029;SDS011;43337;52.070;4.508;2023-08-08T14:02:45;3.60;;;0.77;;
49029;SDS011;43337;52.070;4.508;2023-08-08T14:05:11;5.25;;;1.00;;
49029;SDS011;43337;52.070;4.508;2023-08-08T14:07:36;2.38;;;0.80;;
49029;SDS011;43337;52.070;4.508;2023-08-08T14:10:02;4.45;;;1.15;;
49029;SDS011;43337;52.070;4.508;2023-08-08T14:12:29;2.30;;;0.85;;
49029;SDS011;43337;52.070;4.508;2023-08-08T14:14:54;2.58;;;0.80;;
49029;SDS011;43337;52.070;4.508;2023-08-08T14:17:19;3.78;;;1.20;;
49029;SDS011;43337;52.070;4.508;2023-08-08T14:19:45;3.97;;;1.10;;
49029;SDS011;43337;52.070;4.508;2023-08-08T14:22:10;4.93;;;0.80;;
49029;SDS011;43337;52.070;4.508;2023-08-08T14:24:36;4.25;;;1.15;;
49029;SDS011;43337;52.070;4.508;2023-08-08T14:27:02;3.20;;;1.25;;
49029;SDS011;43337;52.070;4.508;2023-08-08T14:29:27;1.48;;;0.70;;
49029;SDS011;43337;52.070;4.508;2023-08-08T14:31:53;3.42;;;0.85;;
49029;SDS011;43337;52.070;4.508;2023-08-08T14:34:18;2.13;;;1.00;;
49029;SDS011;43337;52.070;4.508;2023-08-08T14:36:44;3.40;;;1.02;;
49029;SDS011;43337;52.070;4.508;2023-08-08T14:39:09;6.80;;;1.67;;
49029;SDS011;43337;52.070;4.508;2023-08-08T14:41:36;2.63;;;0.90;;
49029;SDS011;43337;52.070;4.508;2023-08-08T14:44:01;5.28;;;0.90;;
49029;SDS011;43337;52.070;4.508;2023-08-08T14:46:26;5.38;;;1.10;;